Time;durP1;ratioP1;P1;durP2;ratioP2;P2;SDS_P1;SDS_P2;PMS_P1;PMS_P2;Temp;Humidity;BMP_temperature;BMP_pressure;BME280_temperature;BME280_humidity;BME280_pressure;Samples;Min_cycle;Max_cycle;Signal;HPM_P1;HPM_P2
2022/05/06 00:01:09;;;;;;;0.57;0.40;;;;;;;;;;4945943;28;20027;-78
2022/05/06 00:03:37;;;;;;;0.70;0.40;;;;;;;;;;4942325;29;20058;-78
2022/05/06 00:06:03;;;;;;;0.17;0.17;;;;;;;;;;4944364;28;20114;-77
2022/05/06 00:08:29;;;;;;;0.13;0.13;;;;;;;;;;4942802;28;20468;-78
2022/05/06 00:10:55;;;;;;;0.05;0.05;;;;;;;;;;4947840;28;20027;-78
2022/05/06 00:13:21;;;;;;;0.10;0.10;;;;;;;;;;4945675;28;20071;-78
2022/05/06 00:15:47;;;;;;;0.00;0.00;;;;;;;;;;4942489;28;20124;-78
2022/05/06 00:18:13;;;;;;;0.10;0.08;;;;;;;;;;4945728;28;20738;-78
2022/05/06 00:20:41;;;;;;;0.37;0.17;;;;;;;;;;4942005;28;20035;-78
2022/05/06 00:23:07;;;;;;;0.28;0.20;;;;;;;;;;4942974;28;20038;-77
2022/05/06 00:25:33;;;;;;;0.13;0.13;;;;;;;;;;4950044;28;20506;-78
2022/05/06 00:27:59;;;;;;;0.08;0.08;;;;;;;;;;4945509;28;20039;-80
2022/05/06 00:30:25;;;;;;;0.00;0.00;;;;;;;;;;4946362;28;20026;-80
2022/05/06 00:32:51;;;;;;;0.10;0.10;;;;;;;;;;4944104;28;20039;-81
2022/05/06 00:35:17;;;;;;;0.10;0.10;;;;;;;;;;4943378;28;20110;-81
2022/05/06 00:37:43;;;;;;;0.03;0.03;;;;;;;;;;4946468;28;20039;-81
2022/05/06 00:40:10;;;;;;;0.00;0.00;;;;;;;;;;4945389;28;20333;-81
2022/05/06 00:42:36;;;;;;;0.00;0.00;;;;;;;;;;4943345;28;20028;-82
2022/05/06 00:45:03;;;;;;;0.00;0.00;;;;;;;;;;4945479;28;20076;-82
2022/05/06 00:47:29;;;;;;;0.10;0.10;;;;;;;;;;4942345;28;20027;-82
2022/05/06 00:49:55;;;;;;;0.03;0.03;;;;;;;;;;4946212;28;20039;-82
2022/05/06 00:52:21;;;;;;;0.07;0.07;;;;;;;;;;4944545;28;20302;-83
2022/05/06 00:54:49;;;;;;;0.20;0.20;;;;;;;;;;4942578;28;20302;-81
2022/05/06 00:57:16;;;;;;;0.00;0.00;;;;;;;;;;4945436;28;20494;-82
2022/05/06 01:02:28;;;;;;;0.10;0.10;;;;;;;;;;4932481;29;20038;-82
2022/05/06 01:04:54;;;;;;;0.00;0.00;;;;;;;;;;4946664;28;20870;-82
2022/05/06 01:07:21;;;;;;;0.10;0.10;;;;;;;;;;4945848;28;20063;-81
2022/05/06 01:09:49;;;;;;;;;;;;;;;;;;4942443;28;20043;-81
2022/05/06 01:12:15;;;;;;;0.10;0.10;;;;;;;;;;4944624;28;19922;-81
2022/05/06 01:14:41;;;;;;;0.73;0.60;;;;;;;;;;4942944;28;20499;-80
2022/05/06 01:17:10;;;;;;;0.27;0.27;;;;;;;;;;4943810;28;20062;-81
2022/05/06 01:19:36;;;;;;;0.10;0.10;;;;;;;;;;4948752;28;20027;-78
2022/05/06 01:22:02;;;;;;;0.10;0.10;;;;;;;;;;4944748;28;20035;-79
2022/05/06 01:24:28;;;;;;;0.40;0.40;;;;;;;;;;4942647;28;20034;-78
2022/05/06 01:27:00;;;;;;;0.10;0.10;;;;;;;;;;4941896;28;20270;-77
2022/05/06 01:29:31;;;;;;;0.30;0.30;;;;;;;;;;4946227;28;20035;-78
2022/05/06 01:31:57;;;;;;;0.03;0.03;;;;;;;;;;4944524;28;20424;-78
2022/05/06 01:34:26;;;;;;;0.20;0.20;;;;;;;;;;4942662;28;20142;-77
2022/05/06 01:36:53;;;;;;;0.10;0.10;;;;;;;;;;4943012;28;20046;-76
2022/05/06 01:39:23;;;;;;;0.17;0.17;;;;;;;;;;4943015;28;20031;-76
2022/05/06 01:41:53;;;;;;;0.05;0.05;;;;;;;;;;4943095;28;20027;-78
2022/05/06 01:44:21;;;;;;;0.35;0.35;;;;;;;;;;4940548;29;20031;-78
2022/05/06 01:46:47;;;;;;;0.52;0.52;;;;;;;;;;4946851;28;20058;-78
2022/05/06 01:49:15;;;;;;;0.32;0.32;;;;;;;;;;4941566;28;20525;-78
2022/05/06 01:51:41;;;;;;;0.00;0.00;;;;;;;;;;4942831;28;20059;-78
2022/05/06 01:54:08;;;;;;;0.00;0.00;;;;;;;;;;4936094;28;20065;-78
2022/05/06 01:56:34;;;;;;;0.10;0.10;;;;;;;;;;4941854;28;20102;-78
2022/05/06 01:59:00;;;;;;;0.10;0.10;;;;;;;;;;4942852;28;20043;-78
2022/05/06 02:01:26;;;;;;;0.17;0.17;;;;;;;;;;4942512;28;20043;-78
2022/05/06 02:06:36;;;;;;;0.00;0.00;;;;;;;;;;4938748;28;20046;-79
2022/05/06 02:09:02;;;;;;;1.55;0.45;;;;;;;;;;4942058;28;20035;-78
2022/05/06 02:11:29;;;;;;;1.70;0.30;;;;;;;;;;4938963;28;20035;-78
2022/05/06 02:13:55;;;;;;;0.40;0.40;;;;;;;;;;4935698;29;20286;-78
2022/05/06 02:16:21;;;;;;;0.10;0.10;;;;;;;;;;4940477;28;20055;-78
2022/05/06 02:18:47;;;;;;;0.10;0.10;;;;;;;;;;4943517;28;20039;-78
2022/05/06 02:21:13;;;;;;;0.03;0.03;;;;;;;;;;4941427;28;20649;-78
2022/05/06 02:23:39;;;;;;;0.00;0.00;;;;;;;;;;4942025;28;20506;-78
2022/05/06 02:26:05;;;;;;;0.25;0.22;;;;;;;;;;4944160;29;20499;-78
2022/05/06 02:28:31;;;;;;;0.10;0.10;;;;;;;;;;4957602;28;20041;-76
2022/05/06 02:33:43;;;;;;;0.10;0.10;;;;;;;;;;4937740;28;21009;-81
2022/05/06 02:36:09;;;;;;;0.00;0.00;;;;;;;;;;4938936;28;20023;-80
2022/05/06 02:38:35;;;;;;;0.15;0.15;;;;;;;;;;4945040;28;20118;-79
2022/05/06 02:41:02;;;;;;;2.92;0.45;;;;;;;;;;4944354;28;20050;-78
2022/05/06 02:43:28;;;;;;;0.10;0.10;;;;;;;;;;4942650;28;20135;-79
2022/05/06 02:45:54;;;;;;;0.10;0.10;;;;;;;;;;4943321;28;20803;-79
2022/05/06 02:48:20;;;;;;;0.67;0.67;;;;;;;;;;4942757;28;20054;-79
2022/05/06 02:50:47;;;;;;;0.30;0.30;;;;;;;;;;4941063;28;20066;-79
2022/05/06 02:53:13;;;;;;;0.00;0.00;;;;;;;;;;4942607;28;20448;-79
2022/05/06 02:55:39;;;;;;;0.00;0.00;;;;;;;;;;4942938;28;20187;-80
2022/05/06 02:58:05;;;;;;;0.07;0.07;;;;;;;;;;4941216;28;20031;-80
2022/05/06 03:00:31;;;;;;;0.03;0.03;;;;;;;;;;4942594;29;20110;-79
2022/05/06 03:02:58;;;;;;;0.03;0.03;;;;;;;;;;4943523;28;20471;-78
2022/05/06 03:05:24;;;;;;;0.20;0.20;;;;;;;;;;4943421;28;20046;-78
2022/05/06 03:07:51;;;;;;;0.55;0.55;;;;;;;;;;4944584;28;20046;-77
2022/05/06 03:10:17;;;;;;;0.20;0.20;;;;;;;;;;4946328;28;20038;-77
2022/05/06 03:12:44;;;;;;;0.27;0.20;;;;;;;;;;4947228;28;20047;-78
2022/05/06 03:15:10;;;;;;;0.08;0.08;;;;;;;;;;4946847;28;20054;-78
2022/05/06 03:17:37;;;;;;;0.10;0.10;;;;;;;;;;4943434;28;20205;-78
2022/05/06 03:20:08;;;;;;;0.00;0.00;;;;;;;;;;4947619;28;20119;-78
2022/05/06 03:22:41;;;;;;;0.10;0.10;;;;;;;;;;4943095;28;20039;-78
2022/05/06 03:25:08;;;;;;;0.13;0.10;;;;;;;;;;4940903;28;20024;-78
2022/05/06 03:30:19;;;;;;;0.40;0.30;;;;;;;;;;4943523;28;20046;-78
2022/05/06 03:32:45;;;;;;;0.53;0.53;;;;;;;;;;4942626;29;20043;-80
2022/05/06 03:35:11;;;;;;;6.40;1.27;;;;;;;;;;4946194;28;20496;-78
2022/05/06 03:37:38;;;;;;;0.00;0.00;;;;;;;;;;4944139;28;20471;-78
2022/05/06 03:40:05;;;;;;;0.70;0.50;;;;;;;;;;4942051;28;20034;-77
2022/05/06 03:42:31;;;;;;;0.00;0.00;;;;;;;;;;4941746;28;20065;-78
2022/05/06 03:44:59;;;;;;;0.30;0.30;;;;;;;;;;4945857;28;20597;-78
2022/05/06 03:47:25;;;;;;;0.10;0.10;;;;;;;;;;4943021;28;20027;-78
2022/05/06 03:52:36;;;;;;;0.20;0.20;;;;;;;;;;4945371;28;20215;-79
2022/05/06 03:55:03;;;;;;;0.13;0.13;;;;;;;;;;4939573;28;20130;-78
2022/05/06 03:57:29;;;;;;;0.13;0.13;;;;;;;;;;4942999;28;20283;-79
2022/05/06 03:59:55;;;;;;;0.10;0.10;;;;;;;;;;4942086;28;20450;-80
2022/05/06 04:02:21;;;;;;;0.30;0.10;;;;;;;;;;4942802;29;20035;-79
2022/05/06 04:04:47;;;;;;;0.05;0.05;;;;;;;;;;4943485;28;20070;-79
2022/05/06 04:07:14;;;;;;;0.10;0.10;;;;;;;;;;4941267;28;20408;-80
2022/05/06 04:09:40;;;;;;;;;;;;;;;;;;4940540;28;20279;-79
2022/05/06 04:12:07;;;;;;;0.22;0.22;;;;;;;;;;4943480;28;19976;-80
2022/05/06 04:14:34;;;;;;;0.30;0.30;;;;;;;;;;4940413;28;20313;-80
2022/05/06 04:17:02;;;;;;;0.13;0.13;;;;;;;;;;4948982;28;20038;-80
2022/05/06 04:19:29;;;;;;;0.17;0.17;;;;;;;;;;4944922;28;20034;-81
2022/05/06 04:24:39;;;;;;;3.63;0.32;;;;;;;;;;4941257;29;20329;-77
2022/05/06 04:27:06;;;;;;;0.15;0.15;;;;;;;;;;4942624;28;20463;-76
2022/05/06 04:29:32;;;;;;;0.10;0.10;;;;;;;;;;4942237;28;20138;-77
2022/05/06 04:31:58;;;;;;;0.35;0.35;;;;;;;;;;4940685;28;20042;-76
2022/05/06 04:34:24;;;;;;;0.10;0.10;;;;;;;;;;4942832;28;20494;-76
2022/05/06 04:36:50;;;;;;;0.00;0.00;;;;;;;;;;4942717;28;20050;-75
2022/05/06 04:39:16;;;;;;;0.00;0.00;;;;;;;;;;4939541;28;20173;-76
2022/05/06 04:41:43;;;;;;;0.20;0.20;;;;;;;;;;4941981;28;20109;-77
2022/05/06 04:44:09;;;;;;;0.20;0.20;;;;;;;;;;4931956;29;20287;-76
2022/05/06 04:46:35;;;;;;;0.10;0.10;;;;;;;;;;4946082;28;20042;-76
2022/05/06 04:49:01;;;;;;;0.00;0.00;;;;;;;;;;4945392;28;20038;-75
2022/05/06 04:51:27;;;;;;;0.00;0.00;;;;;;;;;;4947803;28;20027;-76
2022/05/06 04:53:55;;;;;;;0.20;0.20;;;;;;;;;;4949372;28;20596;-75
2022/05/06 04:56:22;;;;;;;3.40;1.05;;;;;;;;;;4943129;28;20723;-76
2022/05/06 04:58:48;;;;;;;0.10;0.10;;;;;;;;;;4950057;28;20145;-76
2022/05/06 05:01:14;;;;;;;0.10;0.10;;;;;;;;;;4944918;28;20105;-75
2022/05/06 05:03:40;;;;;;;0.20;0.20;;;;;;;;;;4943585;28;20511;-75
2022/05/06 05:06:07;;;;;;;0.10;0.10;;;;;;;;;;4941607;28;20035;-74
2022/05/06 05:08:34;;;;;;;0.00;0.00;;;;;;;;;;4942906;28;20043;-76
2022/05/06 05:11:03;;;;;;;0.20;0.20;;;;;;;;;;4942028;28;20027;-79
2022/05/06 05:13:32;;;;;;;1.05;0.52;;;;;;;;;;4940160;28;20310;-80
2022/05/06 05:15:57;;;;;;;0.28;0.28;;;;;;;;;;4943401;28;20047;-76
2022/05/06 05:18:24;;;;;;;0.10;0.10;;;;;;;;;;4940482;28;20442;-79
2022/05/06 05:20:51;;;;;;;0.10;0.10;;;;;;;;;;4936529;29;20027;-80
2022/05/06 05:23:17;;;;;;;0.57;0.47;;;;;;;;;;4937095;29;20768;-80
2022/05/06 05:25:43;;;;;;;0.10;0.10;;;;;;;;;;4927940;29;20059;-80
2022/05/06 05:28:09;;;;;;;0.20;0.15;;;;;;;;;;4959908;28;20062;-80
2022/05/06 05:30:35;;;;;;;0.30;0.30;;;;;;;;;;4945363;28;20467;-81
2022/05/06 05:33:02;;;;;;;0.47;0.47;;;;;;;;;;4942441;28;20118;-83
2022/05/06 05:35:29;;;;;;;0.20;0.20;;;;;;;;;;4945939;28;20118;-80
2022/05/06 05:37:56;;;;;;;0.10;0.10;;;;;;;;;;4941476;28;20039;-79
2022/05/06 05:40:22;;;;;;;0.10;0.10;;;;;;;;;;4934955;29;20119;-80
2022/05/06 05:42:48;;;;;;;0.53;0.53;;;;;;;;;;4939676;28;20146;-80
2022/05/06 05:50:43;;;;;;;0.15;0.10;;;;;;;;;;4943170;28;20047;-80
2022/05/06 05:53:10;;;;;;;1.00;0.50;;;;;;;;;;4947603;28;20125;-79
2022/05/06 05:55:36;;;;;;;0.20;0.20;;;;;;;;;;4965439;28;20027;-79
2022/05/06 05:58:02;;;;;;;0.20;0.15;;;;;;;;;;4948312;28;20031;-79
2022/05/06 06:00:28;;;;;;;0.30;0.30;;;;;;;;;;4946777;28;20039;-79
2022/05/06 06:02:56;;;;;;;0.20;0.20;;;;;;;;;;4945721;28;20041;-77
2022/05/06 06:05:22;;;;;;;0.10;0.05;;;;;;;;;;4944628;29;20522;-78
2022/05/06 06:07:48;;;;;;;0.15;0.15;;;;;;;;;;4951674;28;20038;-77
2022/05/06 06:10:14;;;;;;;0.08;0.03;;;;;;;;;;4948030;28;20046;-77
2022/05/06 06:12:40;;;;;;;0.10;0.10;;;;;;;;;;4948750;28;20043;-77
2022/05/06 06:15:07;;;;;;;0.03;0.03;;;;;;;;;;4949287;28;20165;-79
2022/05/06 06:17:33;;;;;;;0.10;0.10;;;;;;;;;;4947464;29;20039;-79
2022/05/06 06:20:02;;;;;;;0.22;0.10;;;;;;;;;;4953842;28;20033;-78
2022/05/06 06:22:28;;;;;;;0.00;0.00;;;;;;;;;;4951501;28;20517;-78
2022/05/06 06:24:54;;;;;;;0.28;0.25;;;;;;;;;;4946708;28;20087;-79
2022/05/06 06:27:20;;;;;;;1.55;0.40;;;;;;;;;;4941338;28;20646;-77
2022/05/06 06:29:49;;;;;;;0.10;0.10;;;;;;;;;;4946942;28;20035;-80
2022/05/06 06:32:16;;;;;;;0.45;0.45;;;;;;;;;;4962928;28;20130;-80
2022/05/06 06:34:42;;;;;;;0.00;0.00;;;;;;;;;;4962289;28;20038;-86
2022/05/06 06:37:08;;;;;;;0.03;0.03;;;;;;;;;;4951484;28;20531;-86
2022/05/06 06:39:36;;;;;;;0.00;0.00;;;;;;;;;;4947502;28;20442;-86
2022/05/06 06:42:02;;;;;;;0.00;0.00;;;;;;;;;;4951587;28;20553;-86
2022/05/06 06:44:28;;;;;;;0.20;0.20;;;;;;;;;;4946779;28;20061;-82
2022/05/06 06:46:55;;;;;;;0.00;0.00;;;;;;;;;;4951979;28;20559;-85
2022/05/06 06:49:21;;;;;;;0.10;0.10;;;;;;;;;;4959545;28;20809;-84
2022/05/06 06:51:47;;;;;;;0.10;0.10;;;;;;;;;;4951563;28;20057;-84
2022/05/06 06:54:13;;;;;;;0.10;0.10;;;;;;;;;;4959104;28;20034;-85
2022/05/06 06:56:39;;;;;;;0.00;0.00;;;;;;;;;;4946422;28;20050;-86
2022/05/06 06:59:05;;;;;;;0.08;0.08;;;;;;;;;;4949185;28;20110;-86
2022/05/06 07:01:33;;;;;;;0.57;0.10;;;;;;;;;;4949499;28;20039;-88
2022/05/06 07:04:00;;;;;;;0.10;0.00;;;;;;;;;;4947992;28;20559;-87
2022/05/06 07:11:59;;;;;;;0.05;0.05;;;;;;;;;;4902946;29;20677;-87
2022/05/06 07:14:26;;;;;;;0.10;0.10;;;;;;;;;;4902847;29;20055;-87
2022/05/06 07:16:53;;;;;;;0.32;0.15;;;;;;;;;;4900871;29;20031;-87
2022/05/06 07:19:20;;;;;;;0.00;0.00;;;;;;;;;;4902720;29;20036;-87
2022/05/06 07:21:46;;;;;;;2.80;0.60;;;;;;;;;;4902715;29;20528;-86
2022/05/06 07:24:12;;;;;;;0.00;0.00;;;;;;;;;;4885192;29;20048;-87
2022/05/06 07:26:38;;;;;;;0.25;0.13;;;;;;;;;;4889254;29;20111;-86
2022/05/06 07:29:04;;;;;;;1.45;0.85;;;;;;;;;;4904519;29;20131;-87
2022/05/06 07:31:31;;;;;;;0.10;0.10;;;;;;;;;;4903564;29;20115;-86
2022/05/06 07:33:57;;;;;;;0.00;0.00;;;;;;;;;;4898260;29;20040;-77
2022/05/06 07:36:23;;;;;;;;;;;;;;;;;;4904857;29;20047;-77
2022/05/06 07:38:49;;;;;;;0.20;0.10;;;;;;;;;;4905301;29;19942;-77
2022/05/06 07:41:15;;;;;;;0.00;0.00;;;;;;;;;;4889474;29;20567;-77
2022/05/06 07:43:41;;;;;;;0.00;0.00;;;;;;;;;;4905779;29;20539;-77
2022/05/06 07:46:10;;;;;;;;;;;;;;;;;;4905440;29;20036;-77
2022/05/06 07:48:37;;;;;;;0.35;0.30;;;;;;;;;;4916631;29;20640;-77
2022/05/06 07:51:03;;;;;;;0.20;0.10;;;;;;;;;;4945869;28;20062;-77
2022/05/06 07:53:29;;;;;;;;;;;;;;;;;;4946195;29;20574;-77
2022/05/06 07:55:55;;;;;;;0.20;0.20;;;;;;;;;;4946485;28;19997;-77
2022/05/06 07:58:21;;;;;;;;;;;;;;;;;;4946413;28;20035;-77
2022/05/06 08:00:47;;;;;;;0.05;0.05;;;;;;;;;;4945634;28;19914;-77
2022/05/06 08:05:59;;;;;;;0.07;0.07;;;;;;;;;;4945888;29;20128;-77
2022/05/06 08:08:26;;;;;;;0.00;0.00;;;;;;;;;;4930763;29;20370;-78
2022/05/06 08:10:52;;;;;;;0.10;0.10;;;;;;;;;;4944601;29;20039;-77
2022/05/06 08:13:19;;;;;;;0.00;0.00;;;;;;;;;;4944938;28;20047;-77
2022/05/06 08:15:46;;;;;;;0.10;0.10;;;;;;;;;;4945583;29;20175;-78
2022/05/06 08:18:12;;;;;;;0.30;0.30;;;;;;;;;;4944089;29;20035;-77
2022/05/06 08:20:38;;;;;;;;;;;;;;;;;;4946251;29;20035;-77
2022/05/06 08:23:04;;;;;;;0.05;0.05;;;;;;;;;;4946074;28;19915;-77
2022/05/06 08:25:30;;;;;;;;;;;;;;;;;;4946516;28;20031;-77
2022/05/06 08:27:57;;;;;;;4.15;0.20;;;;;;;;;;4945821;28;20100;-77
2022/05/06 08:30:24;;;;;;;0.00;0.00;;;;;;;;;;4945348;29;20038;-77
2022/05/06 08:32:50;;;;;;;0.10;0.10;;;;;;;;;;4946018;28;20043;-77
2022/05/06 08:35:17;;;;;;;0.00;0.00;;;;;;;;;;4945255;28;20039;-78
2022/05/06 08:37:46;;;;;;;0.77;0.35;;;;;;;;;;4944172;29;20034;-78
2022/05/06 08:40:15;;;;;;;0.15;0.15;;;;;;;;;;4945172;28;20043;-77
2022/05/06 08:42:41;;;;;;;0.10;0.10;;;;;;;;;;4943778;29;20122;-77
2022/05/06 08:50:55;;;;;;;0.25;0.13;;;;;;;;;;4931407;29;20089;-77
2022/05/06 08:53:29;;;;;;;2.17;0.10;;;;;;;;;;4945263;28;20046;-77
2022/05/06 08:55:55;;;;;;;0.45;0.10;;;;;;;;;;4941725;29;20054;-77
2022/05/06 08:58:22;;;;;;;0.13;0.10;;;;;;;;;;4945016;29;20035;-76
2022/05/06 09:00:49;;;;;;;0.52;0.22;;;;;;;;;;4944759;28;20574;-77
2022/05/06 09:03:15;;;;;;;0.20;0.20;;;;;;;;;;4945155;28;20109;-77
2022/05/06 09:05:51;;;;;;;0.30;0.30;;;;;;;;;;4945412;29;20031;-77
2022/05/06 09:08:17;;;;;;;0.10;0.10;;;;;;;;;;4944844;28;20035;-78
2022/05/06 09:10:43;;;;;;;;;;;;;;;;;;4945611;28;20316;-77
2022/05/06 09:13:09;;;;;;;1.50;0.20;;;;;;;;;;4944274;28;20492;-77
2022/05/06 09:18:22;;;;;;;0.08;0.08;;;;;;;;;;4945562;29;20041;-77
2022/05/06 09:20:50;;;;;;;0.25;0.22;;;;;;;;;;4944933;28;20035;-77
2022/05/06 09:23:34;;;;;;;0.22;0.22;;;;;;;;;;4944632;28;20031;-77
2022/05/06 09:26:00;;;;;;;0.03;0.03;;;;;;;;;;4941806;29;20038;-77
2022/05/06 09:28:26;;;;;;;0.55;0.20;;;;;;;;;;4944574;29;20024;-77
2022/05/06 09:31:01;;;;;;;0.10;0.10;;;;;;;;;;4944650;29;20066;-77
2022/05/06 09:33:28;;;;;;;0.20;0.20;;;;;;;;;;4945019;29;20414;-84
2022/05/06 09:35:55;;;;;;;0.60;0.20;;;;;;;;;;4944498;29;20062;-85
2022/05/06 09:38:21;;;;;;;0.15;0.15;;;;;;;;;;4944528;28;20034;-85
2022/05/06 09:40:48;;;;;;;0.10;0.10;;;;;;;;;;4945227;28;20828;-85
2022/05/06 09:43:17;;;;;;;0.03;0.00;;;;;;;;;;4944533;28;20035;-85
2022/05/06 09:45:44;;;;;;;0.05;0.05;;;;;;;;;;4944258;29;20054;-84
2022/05/06 09:48:13;;;;;;;0.15;0.15;;;;;;;;;;4940455;29;20031;-85
2022/05/06 09:50:44;;;;;;;0.40;0.40;;;;;;;;;;4944652;28;20035;-85
2022/05/06 09:53:11;;;;;;;0.25;0.25;;;;;;;;;;4944774;28;20055;-85
2022/05/06 09:55:38;;;;;;;0.52;0.20;;;;;;;;;;4942781;29;20142;-86
2022/05/06 09:58:04;;;;;;;0.00;0.00;;;;;;;;;;4944315;29;20197;-85
2022/05/06 10:00:32;;;;;;;0.08;0.08;;;;;;;;;;4943012;29;20050;-85
2022/05/06 10:02:58;;;;;;;0.08;0.08;;;;;;;;;;4944695;28;20032;-85
2022/05/06 10:05:25;;;;;;;0.05;0.05;;;;;;;;;;4944913;28;20427;-86
2022/05/06 10:07:59;;;;;;;0.10;0.10;;;;;;;;;;4945442;29;20027;-86
2022/05/06 10:10:27;;;;;;;0.00;0.00;;;;;;;;;;4944446;29;20505;-86
2022/05/06 10:12:56;;;;;;;6.38;1.45;;;;;;;;;;4944300;29;20168;-85
2022/05/06 10:15:23;;;;;;;0.10;0.10;;;;;;;;;;4944536;29;20443;-86
2022/05/06 10:17:49;;;;;;;0.35;0.35;;;;;;;;;;4944373;28;20078;-86
2022/05/06 10:20:38;;;;;;;0.20;0.15;;;;;;;;;;4944714;28;20086;-86
2022/05/06 10:23:06;;;;;;;0.00;0.00;;;;;;;;;;4942802;29;20649;-84
2022/05/06 10:25:41;;;;;;;0.00;0.00;;;;;;;;;;4944673;29;20475;-84
2022/05/06 10:34:10;;;;;;;0.10;0.10;;;;;;;;;;4943391;29;20098;-86
2022/05/06 10:36:50;;;;;;;0.00;0.00;;;;;;;;;;4945116;28;20023;-86
2022/05/06 10:39:24;;;;;;;0.00;0.00;;;;;;;;;;4937202;29;20056;-85
2022/05/06 10:41:59;;;;;;;0.00;0.00;;;;;;;;;;4946674;28;20042;-85
2022/05/06 10:44:33;;;;;;;0.38;0.20;;;;;;;;;;4946996;29;20499;-85
2022/05/06 10:46:59;;;;;;;0.35;0.10;;;;;;;;;;4946205;29;20035;-85
2022/05/06 10:49:40;;;;;;;0.40;0.20;;;;;;;;;;4947513;29;20054;-85
2022/05/06 10:52:28;;;;;;;0.00;0.00;;;;;;;;;;4946951;28;20083;-85
2022/05/06 10:54:55;;;;;;;0.30;0.28;;;;;;;;;;4946975;29;20087;-84
2022/05/06 10:57:23;;;;;;;0.32;0.20;;;;;;;;;;4947244;28;20035;-85
2022/05/06 10:59:49;;;;;;;0.00;0.00;;;;;;;;;;4947417;28;20876;-84
2022/05/06 11:02:16;;;;;;;0.03;0.03;;;;;;;;;;4946985;28;20053;-84
2022/05/06 11:04:42;;;;;;;0.47;0.10;;;;;;;;;;4947785;29;20657;-84
2022/05/06 11:07:14;;;;;;;0.10;0.10;;;;;;;;;;4947258;29;20496;-84
2022/05/06 11:09:40;;;;;;;0.00;0.00;;;;;;;;;;4945470;29;20663;-85
2022/05/06 11:12:06;;;;;;;0.00;0.00;;;;;;;;;;4946582;28;20035;-84
2022/05/06 11:14:33;;;;;;;0.43;0.43;;;;;;;;;;4946806;29;20767;-85
2022/05/06 11:17:18;;;;;;;0.00;0.00;;;;;;;;;;4946971;28;20024;-84
2022/05/06 11:19:44;;;;;;;0.47;0.40;;;;;;;;;;4944719;29;20035;-84
2022/05/06 11:22:11;;;;;;;0.00;0.00;;;;;;;;;;4946568;28;20042;-85
2022/05/06 11:24:37;;;;;;;0.52;0.50;;;;;;;;;;4946000;28;20031;-84
2022/05/06 11:27:16;;;;;;;0.35;0.20;;;;;;;;;;4946498;28;20042;-84
2022/05/06 11:29:57;;;;;;;0.30;0.30;;;;;;;;;;4946497;29;20038;-84
2022/05/06 11:32:27;;;;;;;0.00;0.00;;;;;;;;;;4946473;28;20053;-84
2022/05/06 11:35:03;;;;;;;0.10;0.10;;;;;;;;;;4943110;29;20070;-84
2022/05/06 11:37:30;;;;;;;0.00;0.00;;;;;;;;;;4946876;29;20112;-84
2022/05/06 11:42:41;;;;;;;0.10;0.10;;;;;;;;;;4943963;29;20098;-84
2022/05/06 11:47:52;;;;;;;0.00;0.00;;;;;;;;;;4945023;28;20585;-86
2022/05/06 11:50:19;;;;;;;0.08;0.08;;;;;;;;;;4946100;28;20704;-85
2022/05/06 11:52:46;;;;;;;0.20;0.20;;;;;;;;;;4946858;28;20145;-85
2022/05/06 11:55:12;;;;;;;1.95;0.45;;;;;;;;;;4946344;28;20563;-84
2022/05/06 11:57:40;;;;;;;0.10;0.10;;;;;;;;;;4946240;28;20221;-85
2022/05/06 12:00:07;;;;;;;0.00;0.00;;;;;;;;;;4946038;28;20042;-86
2022/05/06 12:02:33;;;;;;;0.05;0.05;;;;;;;;;;4946442;29;20114;-85
2022/05/06 12:04:59;;;;;;;0.03;0.03;;;;;;;;;;4946680;28;20106;-86
2022/05/06 12:07:45;;;;;;;0.28;0.28;;;;;;;;;;4946295;28;20062;-85
2022/05/06 12:10:22;;;;;;;0.00;0.00;;;;;;;;;;4945523;29;20406;-86
2022/05/06 12:13:10;;;;;;;0.00;0.00;;;;;;;;;;4945988;28;20074;-85
2022/05/06 12:15:40;;;;;;;0.00;0.00;;;;;;;;;;4944461;29;20030;-86
2022/05/06 12:18:07;;;;;;;0.00;0.00;;;;;;;;;;4945507;29;20038;-86
2022/05/06 12:20:43;;;;;;;0.40;0.20;;;;;;;;;;4945773;28;20035;-84
2022/05/06 12:23:10;;;;;;;0.00;0.00;;;;;;;;;;4945716;28;20031;-86
2022/05/06 12:25:39;;;;;;;0.00;0.00;;;;;;;;;;4946640;28;20024;-85
2022/05/06 12:28:06;;;;;;;0.15;0.15;;;;;;;;;;4945827;28;20162;-85
2022/05/06 12:30:32;;;;;;;4.35;0.57;;;;;;;;;;4945941;28;20039;-84
2022/05/06 12:33:04;;;;;;;0.45;0.45;;;;;;;;;;4945740;28;20058;-85
2022/05/06 12:35:30;;;;;;;0.00;0.00;;;;;;;;;;4930864;29;20494;-85
2022/05/06 12:37:58;;;;;;;0.00;0.00;;;;;;;;;;4946083;28;20408;-85
2022/05/06 12:40:34;;;;;;;1.77;0.52;;;;;;;;;;4945551;29;20038;-85
2022/05/06 12:43:10;;;;;;;0.00;0.00;;;;;;;;;;4945886;29;20023;-85
2022/05/06 12:45:37;;;;;;;0.25;0.25;;;;;;;;;;4945633;28;20110;-86
2022/05/06 12:50:47;;;;;;;0.10;0.10;;;;;;;;;;4945123;29;19969;-86
2022/05/06 12:53:13;;;;;;;0.55;0.35;;;;;;;;;;4945173;28;20070;-86
2022/05/06 12:55:41;;;;;;;0.10;0.10;;;;;;;;;;4945730;28;20397;-86
2022/05/06 12:58:07;;;;;;;0.10;0.10;;;;;;;;;;4945284;28;20039;-86
2022/05/06 13:00:33;;;;;;;0.00;0.00;;;;;;;;;;4945064;28;20059;-86
2022/05/06 13:03:00;;;;;;;0.00;0.00;;;;;;;;;;4944988;28;20039;-85
2022/05/06 13:05:26;;;;;;;0.10;0.10;;;;;;;;;;4929928;29;20042;-86
2022/05/06 13:07:52;;;;;;;0.00;0.00;;;;;;;;;;4944241;29;20027;-85
2022/05/06 13:10:19;;;;;;;0.10;0.10;;;;;;;;;;4944809;28;20046;-85
2022/05/06 13:12:45;;;;;;;0.00;0.00;;;;;;;;;;4944521;28;20046;-84
2022/05/06 13:15:11;;;;;;;0.03;0.03;;;;;;;;;;4944873;28;20110;-86
2022/05/06 13:17:37;;;;;;;0.38;0.28;;;;;;;;;;4944784;28;20034;-84
2022/05/06 13:20:04;;;;;;;0.22;0.22;;;;;;;;;;4944787;28;20031;-83
2022/05/06 13:22:30;;;;;;;0.17;0.10;;;;;;;;;;4943674;29;20027;-84
2022/05/06 13:24:57;;;;;;;0.00;0.00;;;;;;;;;;4944475;29;20755;-83
2022/05/06 13:27:23;;;;;;;0.08;0.08;;;;;;;;;;4944686;29;20034;-83
2022/05/06 13:29:49;;;;;;;0.03;0.03;;;;;;;;;;4944669;28;20042;-82
2022/05/06 13:32:15;;;;;;;0.20;0.20;;;;;;;;;;4943227;29;20035;-82
2022/05/06 13:34:41;;;;;;;0.77;0.17;;;;;;;;;;4945556;28;20055;-78
2022/05/06 13:37:08;;;;;;;0.20;0.10;;;;;;;;;;4944441;28;20460;-78
2022/05/06 13:39:34;;;;;;;0.00;0.00;;;;;;;;;;4944383;29;20102;-79
2022/05/06 13:42:00;;;;;;;0.10;0.10;;;;;;;;;;4943394;29;20031;-78
2022/05/06 13:44:26;;;;;;;0.00;0.00;;;;;;;;;;4942985;29;20035;-78
2022/05/06 13:46:52;;;;;;;0.00;0.00;;;;;;;;;;4944657;29;20163;-76
2022/05/06 13:49:19;;;;;;;3.00;0.65;;;;;;;;;;4943297;29;20027;-76
2022/05/06 13:51:45;;;;;;;1.95;0.55;;;;;;;;;;4943740;29;20062;-76
2022/05/06 13:54:11;;;;;;;0.00;0.00;;;;;;;;;;4944143;28;20035;-78
2022/05/06 13:59:22;;;;;;;0.00;0.00;;;;;;;;;;4943793;29;20078;-76
2022/05/06 14:01:49;;;;;;;0.45;0.45;;;;;;;;;;4942726;29;20035;-76
2022/05/06 14:04:15;;;;;;;0.22;0.20;;;;;;;;;;4943486;28;20447;-77
2022/05/06 14:06:41;;;;;;;0.28;0.28;;;;;;;;;;4943862;29;20091;-76
2022/05/06 14:09:07;;;;;;;0.10;0.10;;;;;;;;;;4943804;28;20086;-76
2022/05/06 14:11:34;;;;;;;0.00;0.00;;;;;;;;;;4944984;28;20035;-77
2022/05/06 14:14:01;;;;;;;0.00;0.00;;;;;;;;;;4947855;28;20042;-76
2022/05/06 14:16:27;;;;;;;0.85;0.55;;;;;;;;;;4947820;29;20035;-76
2022/05/06 14:18:53;;;;;;;;;;;;;;;;;;4947589;28;20993;-76
2022/05/06 14:21:19;;;;;;;0.08;0.08;;;;;;;;;;4947167;29;19921;-77
2022/05/06 14:23:46;;;;;;;0.00;0.00;;;;;;;;;;4947272;28;20046;-77
2022/05/06 14:26:12;;;;;;;0.00;0.00;;;;;;;;;;4947142;29;20035;-76
2022/05/06 14:28:38;;;;;;;0.93;0.60;;;;;;;;;;4947349;28;20174;-76
2022/05/06 14:31:04;;;;;;;0.10;0.10;;;;;;;;;;4947291;28;20441;-76
2022/05/06 14:33:30;;;;;;;0.35;0.13;;;;;;;;;;4946890;28;20467;-82
2022/05/06 14:35:56;;;;;;;0.00;0.00;;;;;;;;;;4947267;28;20034;-82
2022/05/06 14:38:22;;;;;;;0.10;0.10;;;;;;;;;;4946910;28;20042;-82
2022/05/06 14:40:48;;;;;;;0.00;0.00;;;;;;;;;;4947297;28;20031;-82
2022/05/06 14:43:14;;;;;;;0.10;0.10;;;;;;;;;;4946711;29;20082;-82
2022/05/06 14:45:41;;;;;;;0.00;0.00;;;;;;;;;;4946133;29;20070;-82
2022/05/06 14:48:07;;;;;;;0.00;0.00;;;;;;;;;;4945070;29;20722;-81
2022/05/06 14:50:33;;;;;;;0.10;0.10;;;;;;;;;;4944825;29;20046;-81
2022/05/06 14:52:59;;;;;;;0.00;0.00;;;;;;;;;;4945246;29;20082;-81
2022/05/06 14:55:25;;;;;;;0.00;0.00;;;;;;;;;;4945632;29;20037;-81
2022/05/06 14:57:52;;;;;;;1.15;0.30;;;;;;;;;;4946391;29;20035;-80
2022/05/06 15:00:19;;;;;;;0.08;0.08;;;;;;;;;;4946595;28;20062;-82
2022/05/06 15:02:45;;;;;;;0.00;0.00;;;;;;;;;;4946337;28;20031;-81
2022/05/06 15:05:11;;;;;;;0.43;0.15;;;;;;;;;;4947476;28;20094;-81
2022/05/06 15:07:37;;;;;;;0.15;0.10;;;;;;;;;;4947651;29;20130;-81
2022/05/06 15:10:04;;;;;;;0.45;0.45;;;;;;;;;;4945323;29;20765;-81
2022/05/06 15:12:30;;;;;;;0.00;0.00;;;;;;;;;;4944407;29;20052;-80
2022/05/06 15:14:56;;;;;;;0.10;0.10;;;;;;;;;;4946440;28;20554;-80
2022/05/06 15:17:23;;;;;;;0.98;0.80;;;;;;;;;;4946170;28;20162;-81
2022/05/06 15:19:49;;;;;;;0.00;0.00;;;;;;;;;;4947766;29;20031;-81
2022/05/06 15:22:16;;;;;;;0.15;0.15;;;;;;;;;;4946864;28;20095;-80
2022/05/06 15:24:42;;;;;;;0.38;0.10;;;;;;;;;;4946719;28;20027;-80
2022/05/06 15:27:08;;;;;;;0.10;0.10;;;;;;;;;;4944324;29;20062;-79
2022/05/06 15:29:36;;;;;;;0.22;0.20;;;;;;;;;;4946301;28;20031;-79
2022/05/06 15:32:02;;;;;;;0.00;0.00;;;;;;;;;;4945869;28;20077;-84
2022/05/06 15:34:28;;;;;;;0.10;0.10;;;;;;;;;;4946301;29;20090;-77
2022/05/06 15:36:55;;;;;;;0.00;0.00;;;;;;;;;;4945823;28;20415;-78
2022/05/06 15:39:21;;;;;;;0.00;0.00;;;;;;;;;;4945028;29;20491;-77
2022/05/06 15:41:49;;;;;;;0.00;0.00;;;;;;;;;;4945846;28;20108;-77